New Orleans, Louisiana
Current Conditions -  °F | °C
As of 6:55 PM on Saturday 25 Oct 2014 (Local Time) from KVSH Reporting Station
Clear Clear  
Wind Chill: 77°   Ceiling: Unl
Heat Index: 78°   Visibility: 10mi
Dew Point: 52°   Wind: 3mph
Humidity: 41%   Direction: 290°WNW
Pressure: 30.07"   Gusts: NA
Location:  29.95°N, 90.08°W
Report Text: KVSH 252355Z AUTO 29003KT 10SM CLR 25/11 A3007 RMK AO1 10260 20240 402600170 57003
Loading
Personal Weather Stations






























Interactive Weather Map
Tropical Storm Tracking
New forecast layout! Learn more

10-Day Weather Forecast

Advertisements
Track Severe Weather on mobile